Estación Meteorológica Peña el Pijo (Robertgarden) [ 12/10/18 12:17:20 CET ]

Fecha Hora Presion(HPa) Temp (°C) Humedad % Rocio (°C) Viento ( m/s) Direccion Lluvia 1Hora(mm) Lluvia 24H(mm) LLuvia Total(mm)
2018-Oct-12 01:01:53 1012.400 10.9 87 8.8       1.03 7.77
2018-Oct-12 02:01:56 1012.600 10.3 88 8.4       1.03 7.77
2018-Oct-12 03:04:50 1012.800 9.6 89 7.9       1.03 7.77
2018-Oct-12 04:04:10 1012.400 9.1 89 7.4       1.03 7.77
2018-Oct-12 05:01:27 1012.400 8.8 89 7.1       1.03 7.77
2018-Oct-12 06:01:32 1012.600 7.9 90 6.4       1.03 7.77
2018-Oct-12 07:01:34 1012.900 8.1 90 6.6       1.03 7.77
2018-Oct-12 08:01:48 1013.300 7.3 90 5.8       0.51 7.77
2018-Oct-12 09:01:49 1013.800 7.3 90 5.8       0.51 7.77
2018-Oct-12 10:01:55 1014.500 12.6 92 11.3       0.51 7.77
2018-Oct-12 11:01:49 1015.000 18.9 80 15.4       0.51 7.77
2018-Oct-12 12:01:54 1015.000 23.7 55 14.1       0.51 7.77
2018-Oct-12 13:01:52 1015.100 25.4 51 14.5       0.51 7.77
2018-Oct-12 14:01:40 1014.800 23.9 51 13.2       0.51 7.77
2018-Oct-12 15:01:49 1014.300 25.9 49 14.4       0.51 7.77
2018-Oct-12 16:01:42 1014.200 25.4 51 14.5         7.77
2018-Oct-12 17:01:59 1014.100 26.6 47 14.3         7.77
2018-Oct-12 18:01:38 1014.000 23.6 54 13.7         7.77
2018-Oct-12 19:01:50 1014.100 21.4 60 13.4         7.77
2018-Oct-12 20:01:47 1014.600 19.8 67 13.5         7.77
2018-Oct-12 21:01:48 1014.700 17.9 70 12.4         7.77
2018-Oct-12 22:01:49 1015.200 15.0 76 10.8         7.77
2018-Oct-12 23:01:56 1015.500 13.5 81 10.3         7.77

Temperatura Máxima:26°    Temperatura Mínima:
Presión Máxima:1015.500 Hpa    Presión Mínima:1012.400 Hpa


Volver